Fremont, MI

2:59 AM EST on December 08, 2019 (GMT -0500)
Fremont

Weather History for KFFX - October, 2019

Change the Weather History Date:

Tuesday, October 1, 2019

  Actual Average (WUND) Record (WUND)
Temperature  
Mean Temperature 71 °F -  
Max Temperature 75 °F - - (-1)
Min Temperature 67 °F - - (-1)
Cooling Degree Days 6    
Growing Degree Days 21 (Base 50)    
Moisture  
Dew Point 67 °F    
Average Humidity 89    
Maximum Humidity 99    
Minimum Humidity 59    
Precipitation  
Precipitation 0.00 in - - ()
Sea Level Pressure  
Sea Level Pressure 29.92 in    
Wind  
Wind Speed 4 mph ()    
Max Wind Speed 15 mph    
Max Gust Speed 20 mph    
Visibility 8.5 miles    
Events Rain    
Averages and records for this station are not official NWS values.
T = Trace of Precipitation, MM = Missing Value Source: Averaged Metar Reports

Daily Weather History Graph

Daily Weather History Graph

Search for Another Location

Airport or City:

Astronomy

Oct. 01, 2019 Rise Set
Actual Time 7:41 AM EDT 7:25 PM EDT
Civil Twilight 7:12 AM EDT 7:53 PM EDT
Nautical Twilight 6:39 AM EDT 8:26 PM EDT
Astronomical Twilight 6:05 AM EDT 9:00 PM EDT
Moon 11:01 AM EDT (10/1) 9:32 PM EDT (10/1)
Length of Visible Light 12h 41m
Length of Day
11h 44m
Waxing Crescent, 12% of the Moon is Illuminated
Oct 1
Waxing Crescent
Oct 5
First Quarter
Oct 13
Full
Oct 21
Last Quarter
Oct 27
New

Hourly Weather History & Observations

Time (EDT) Temp. Dew Point Humidity Pressure Visibility Wind Dir Wind Speed Gust Speed Precip Events Conditions
12:15 AM 70.0 °F 67.3 °F 91% 29.93 in 10.0 mi Calm Calm - N/A   Clear
12:16 AM 70.0 °F 67.3 °F 91% 29.93 in 10.0 mi SSW 3.5 mph - N/A   Clear
12:35 AM 68.0 °F 66.9 °F 96% 29.92 in 10.0 mi SSW 3.5 mph - N/A   Clear
12:58 AM 69.4 °F 67.1 °F 92% 29.92 in 10.0 mi SW 3.5 mph - N/A   Clear
1:16 AM 69.8 °F 66.6 °F 89% 29.92 in 10.0 mi SW 5.8 mph - N/A   Scattered Clouds
1:35 AM 73.9 °F 61.9 °F 66% 29.92 in 10.0 mi SW 6.9 mph - N/A   Scattered Clouds
1:55 AM 74.7 °F 60.8 °F 62% 29.91 in 10.0 mi SW 9.2 mph - N/A   Scattered Clouds
1:56 AM 74.7 °F 60.8 °F 62% 29.91 in 10.0 mi SW 9.2 mph - N/A   Scattered Clouds
2:19 AM 75.2 °F 60.1 °F 59% 29.91 in 10.0 mi SW 8.1 mph - N/A   Scattered Clouds
2:37 AM 74.8 °F 59.9 °F 60% 29.91 in 10.0 mi SW 10.4 mph - N/A   Clear
3:15 AM 74.1 °F 59.9 °F 61% 29.91 in 10.0 mi SW 8.1 mph - N/A   Clear
3:35 AM 73.6 °F 60.1 °F 63% 29.91 in 10.0 mi SW 8.1 mph - N/A   Clear
3:58 AM 73.6 °F 59.9 °F 62% 29.90 in 10.0 mi SW 6.9 mph - N/A   Clear
4:16 AM 72.7 °F 60.4 °F 65% 29.91 in 10.0 mi SW 5.8 mph - N/A   Clear
4:35 AM 72.5 °F 61.0 °F 67% 29.91 in 10.0 mi SW 6.9 mph - N/A   Clear
4:55 AM 72.5 °F 61.0 °F 67% 29.91 in 10.0 mi SW 6.9 mph - N/A   Scattered Clouds
5:19 AM 73.0 °F 60.8 °F 65% 29.91 in 10.0 mi SW 5.8 mph - N/A   Overcast
5:37 AM 72.7 °F 61.3 °F 67% 29.91 in 10.0 mi SW 5.8 mph - N/A   Overcast
5:55 AM 73.0 °F 61.5 °F 67% 29.90 in 10.0 mi SW 5.8 mph - N/A   Overcast
5:56 AM 73.0 °F 61.5 °F 67% 29.90 in 10.0 mi SW 5.8 mph - N/A   Overcast
6:15 AM 72.0 °F 62.8 °F 73% 29.89 in 10.0 mi SW 5.8 mph - N/A   Scattered Clouds
6:16 AM 72.0 °F 62.8 °F 73% 29.89 in 10.0 mi SW 6.9 mph - N/A   Scattered Clouds
6:35 AM 72.7 °F 61.5 °F 68% 29.90 in 10.0 mi SW 5.8 mph - N/A   Mostly Cloudy
6:40 AM 72.5 °F 61.5 °F 68% 29.90 in 10.0 mi SW 4.6 mph - N/A   Mostly Cloudy
6:58 AM 72.5 °F 61.7 °F 69% 29.89 in 10.0 mi SSW 4.6 mph - N/A   Mostly Cloudy
7:16 AM 70.2 °F 66.2 °F 87% 29.90 in 10.0 mi SSW 5.8 mph - N/A   Mostly Cloudy
7:35 AM 70.0 °F 66.4 °F 88% 29.92 in 10.0 mi SSW 4.6 mph - N/A   Mostly Cloudy
7:36 AM 70.0 °F 66.6 °F 89% 29.92 in 10.0 mi SSW 4.6 mph - N/A   Mostly Cloudy
7:55 AM 70.3 °F 66.6 °F 88% 29.92 in 10.0 mi SW 3.5 mph - N/A   Mostly Cloudy
7:56 AM 70.3 °F 66.6 °F 88% 29.92 in 10.0 mi SW 3.5 mph - N/A   Mostly Cloudy
8:19 AM 70.7 °F 66.6 °F 87% 29.92 in 10.0 mi South 3.5 mph - N/A   Mostly Cloudy
8:37 AM 71.2 °F 67.1 °F 87% 29.93 in 10.0 mi SSW 3.5 mph - N/A   Scattered Clouds
8:55 AM 71.2 °F 67.1 °F 87% 29.93 in 10.0 mi SW 3.5 mph - N/A   Scattered Clouds
9:15 AM 71.6 °F 67.3 °F 86% 29.94 in 10.0 mi WSW 3.5 mph - N/A Rain Light Rain
9:35 AM 71.2 °F 67.5 °F 88% 29.92 in 10.0 mi Calm Calm - N/A   Mostly Cloudy
9:58 AM 71.6 °F 67.8 °F 88% 29.93 in 10.0 mi Calm Calm - N/A Rain Light Rain
10:16 AM 70.9 °F 68.2 °F 91% 29.92 in 10.0 mi Calm Calm - N/A Rain Light Rain
10:35 AM 69.8 °F 68.7 °F 96% 29.95 in 7.0 mi West 3.5 mph - N/A Rain Heavy Rain
10:55 AM 69.3 °F 68.7 °F 98% 29.95 in 1.8 mi SSW 8.1 mph - N/A Rain Heavy Rain
11:19 AM 69.1 °F 68.5 °F 98% 29.95 in 1.2 mi SSW 5.8 mph - N/A Rain Heavy Rain
11:37 AM 69.1 °F 68.5 °F 98% 29.94 in 7.0 mi Calm Calm - N/A Rain Light Rain
11:55 AM 69.3 °F 68.9 °F 99% 29.95 in 7.0 mi Calm Calm - N/A Rain Light Rain
11:56 AM 69.3 °F 68.9 °F 99% 29.95 in 10.0 mi Calm Calm - N/A Rain Light Rain
12:15 PM 69.3 °F 68.9 °F 99% 29.94 in 7.0 mi South 5.8 mph - N/A   Overcast
12:16 PM 69.3 °F 68.9 °F 99% 29.93 in 7.0 mi SSE 5.8 mph - N/A   Overcast
12:35 PM 70.5 °F 70.0 °F 98% 29.95 in 10.0 mi SSW 4.6 mph - N/A   Mostly Cloudy
12:40 PM 70.5 °F 70.0 °F 98% 29.94 in 10.0 mi SSW 3.5 mph - N/A   Overcast
12:58 PM 70.3 °F 70.0 °F 99% 29.96 in 4.0 mi SW 4.6 mph - N/A Rain Rain
1:16 PM 70.3 °F 70.0 °F 99% 29.97 in 10.0 mi West 3.5 mph - N/A Rain Light Rain
1:35 PM 70.2 °F 69.8 °F 99% 29.98 in 7.0 mi WSW 3.5 mph - N/A Rain Light Rain
1:36 PM 70.2 °F 69.8 °F 99% 29.98 in 10.0 mi Calm Calm - N/A Rain Light Rain
1:55 PM 70.2 °F 69.8 °F 99% 29.98 in 10.0 mi SW 3.5 mph - N/A Rain Light Rain
1:56 PM 70.2 °F 69.8 °F 99% 29.98 in 10.0 mi SW 3.5 mph - N/A Rain Light Rain
2:19 PM 69.8 °F 69.4 °F 99% 29.97 in 4.0 mi Calm Calm - N/A Rain Rain
2:37 PM 69.8 °F 69.4 °F 99% 30.03 in 5.0 mi West 11.5 mph - N/A Rain Heavy Rain
2:55 PM 69.4 °F 69.1 °F 99% 29.97 in 3.0 mi NE 3.5 mph - N/A Rain Rain
3:15 PM 69.8 °F 69.3 °F 98% 29.98 in 5.0 mi SW 3.5 mph - N/A Rain Light Rain
3:16 PM 69.8 °F 69.3 °F 98% 29.98 in 5.0 mi SW 3.5 mph - N/A Rain Light Rain
3:35 PM 70.0 °F 69.8 °F 99% 29.98 in 5.0 mi South 4.6 mph - N/A Rain Light Rain
3:40 PM 69.8 °F 69.4 °F 99% 29.98 in 5.0 mi SSW 3.5 mph - N/A Rain Light Rain
3:58 PM 69.8 °F 69.1 °F 98% 29.98 in 4.0 mi South 8.1 mph - N/A Rain Rain
4:16 PM 69.3 °F 68.9 °F 99% 29.92 in 3.0 mi SSE 8.1 mph - N/A Rain Rain
4:55 PM 69.8 °F 69.3 °F 98% 29.88 in 7.0 mi SSE 5.8 mph - N/A   Mostly Cloudy
5:19 PM 70.5 °F 70.2 °F 99% 29.87 in 10.0 mi South 5.8 mph - N/A   Mostly Cloudy
5:37 PM 71.6 °F 70.3 °F 96% 29.89 in 10.0 mi SSW 3.5 mph - N/A   Mostly Cloudy
5:55 PM 71.2 °F 69.8 °F 95% 29.90 in 10.0 mi Calm Calm - N/A   Overcast
5:56 PM 71.2 °F 69.8 °F 95% 29.90 in 10.0 mi Calm Calm - N/A   Overcast
6:15 PM 71.4 °F 69.3 °F 93% 29.90 in 10.0 mi Calm Calm - N/A   Overcast
6:35 PM 70.7 °F 68.9 °F 94% 29.89 in 10.0 mi South 4.6 mph - N/A Rain Light Rain
6:58 PM 70.0 °F 68.7 °F 96% 29.91 in 10.0 mi SSW 3.5 mph - N/A   Mostly Cloudy
7:16 PM 69.8 °F 68.7 °F 96% 29.90 in 10.0 mi Calm Calm - N/A   Overcast
7:35 PM 69.1 °F 68.5 °F 98% 29.90 in 10.0 mi Calm Calm - N/A   Overcast
7:55 PM 68.9 °F 68.4 °F 98% 29.89 in 10.0 mi Calm Calm - N/A Rain Light Rain
8:19 PM 68.5 °F 68.0 °F 98% 29.87 in 7.0 mi ENE 3.5 mph - N/A Rain Rain
8:37 PM 68.4 °F 68.0 °F 99% 29.85 in 7.0 mi East 3.5 mph - N/A Rain Rain
8:55 PM 68.5 °F 68.2 °F 99% 29.85 in 7.0 mi ENE 5.8 mph - N/A Rain Heavy Rain
9:15 PM 68.9 °F 68.4 °F 98% 29.84 in 10.0 mi NE 5.8 mph - N/A Rain Light Rain
9:16 PM 68.9 °F 68.4 °F 98% 29.84 in 10.0 mi ENE 5.8 mph - N/A Rain Light Rain
9:35 PM 68.9 °F 68.5 °F 99% 29.82 in 10.0 mi East 11.5 mph - N/A   Overcast
9:40 PM 69.1 °F 68.5 °F 98% 29.82 in 10.0 mi ESE 5.8 mph - N/A   Overcast
9:58 PM 68.9 °F 68.5 °F 99% 29.87 in 7.0 mi North 15.0 mph 18.4 mph N/A Rain Rain
10:16 PM 68.9 °F 68.5 °F 99% 29.87 in 0.8 mi North 12.7 mph 19.6 mph N/A Rain Heavy Rain
10:35 PM 68.7 °F 68.2 °F 98% 29.88 in 5.0 mi NNE 6.9 mph - N/A Rain Rain
10:36 PM 68.7 °F 68.2 °F 98% 29.88 in 7.0 mi NNE 8.1 mph - N/A Rain Rain
10:55 PM 68.2 °F 67.6 °F 98% 29.87 in 3.0 mi NE 15.0 mph - N/A Rain Heavy Rain
11:19 PM 67.6 °F 67.3 °F 99% 29.87 in 10.0 mi ESE 4.6 mph - N/A Rain Light Rain
11:37 PM 67.6 °F 67.3 °F 99% 29.88 in 10.0 mi NE 3.5 mph - N/A Rain Light Rain
11:55 PM 67.5 °F 67.1 °F 99% 29.87 in 10.0 mi East 3.5 mph - N/A Rain Rain
11:56 PM 67.6 °F 67.3 °F 99% 29.87 in 10.0 mi Calm Calm - N/A Rain Rain